createdAt,value
2023-03-22T00:02:02.737Z,2.80
2023-03-22T00:04:34.724Z,3.30
2023-03-22T00:07:06.745Z,3.27
2023-03-22T00:09:38.745Z,3.30
2023-03-22T00:12:10.759Z,3.40
2023-03-22T00:14:42.984Z,3.63
2023-03-22T00:17:15.639Z,3.70
2023-03-22T00:19:49.408Z,3.83
2023-03-22T00:22:21.889Z,3.80
2023-03-22T00:24:53.848Z,3.90
2023-03-22T00:27:26.077Z,3.97
2023-03-22T00:29:58.327Z,4.37
2023-03-22T00:32:30.432Z,4.50
2023-03-22T00:35:03.724Z,4.80
2023-03-22T00:37:38.694Z,4.23
2023-03-22T00:40:15.431Z,4.50
2023-03-22T00:42:49.351Z,4.50
2023-03-22T00:45:21.270Z,4.30
2023-03-22T00:47:53.225Z,4.63
2023-03-22T00:50:25.453Z,4.67
2023-03-22T00:52:57.481Z,4.73
2023-03-22T00:55:29.483Z,4.93
2023-03-22T00:58:01.768Z,4.53
2023-03-22T01:00:33.763Z,4.83
2023-03-22T01:03:05.801Z,4.97
2023-03-22T01:05:37.908Z,5.10
2023-03-22T01:08:10.758Z,5.23
2023-03-22T01:10:44.355Z,5.70
2023-03-22T01:13:17.904Z,6.17
2023-03-22T01:15:52.790Z,6.23
2023-03-22T01:18:24.761Z,6.40
2023-03-22T01:20:56.687Z,6.53
2023-03-22T01:23:28.763Z,6.70
2023-03-22T01:26:01.509Z,6.97
2023-03-22T01:28:33.602Z,7.43
2023-03-22T01:31:05.920Z,7.43
2023-03-22T01:33:37.963Z,7.30
2023-03-22T01:36:10.427Z,8.60
2023-03-22T01:38:42.445Z,7.83
2023-03-22T01:41:16.593Z,7.80
2023-03-22T01:44:22.711Z,8.17
2023-03-22T01:46:54.650Z,8.20
2023-03-22T01:49:35.731Z,8.43
2023-03-22T01:52:14.815Z,8.67
2023-03-22T01:54:53.514Z,8.17
2023-03-22T01:57:25.619Z,8.80
2023-03-22T01:59:57.566Z,7.73
2023-03-22T02:02:30.886Z,8.40
2023-03-22T02:05:04.290Z,8.70
2023-03-22T02:07:39.562Z,8.10
2023-03-22T02:10:19.392Z,9.00
2023-03-22T02:13:14.662Z,7.83
2023-03-22T02:16:26.964Z,8.40
2023-03-22T02:19:42.350Z,7.57
2023-03-22T02:22:53.105Z,8.50
2023-03-22T02:25:58.325Z,8.13
2023-03-22T02:28:43.634Z,7.80
2023-03-22T02:31:59.530Z,7.03
2023-03-22T02:35:12.374Z,7.13
2023-03-22T02:38:28.830Z,6.93
2023-03-22T02:41:20.463Z,6.17
2023-03-22T02:44:09.385Z,6.60
2023-03-22T02:47:00.727Z,6.77
2023-03-22T02:49:56.825Z,6.20
2023-03-22T02:52:59.038Z,5.90
2023-03-22T02:55:59.883Z,6.53
2023-03-22T02:58:50.369Z,5.90
2023-03-22T03:01:33.163Z,6.37
2023-03-22T03:04:12.919Z,6.13
2023-03-22T03:06:48.921Z,5.87
2023-03-22T03:09:21.833Z,5.50
2023-03-22T03:11:54.925Z,5.50
2023-03-22T03:14:32.327Z,5.30
2023-03-22T03:17:24.547Z,5.70
2023-03-22T03:20:56.506Z,5.53
2023-03-22T03:23:49.291Z,4.83
2023-03-22T03:26:30.230Z,5.07
2023-03-22T03:29:23.386Z,5.23
2023-03-22T03:32:12.063Z,4.87
2023-03-22T03:34:51.469Z,5.40
2023-03-22T03:37:34.089Z,4.90
2023-03-22T03:40:31.179Z,4.80
2023-03-22T03:43:06.308Z,4.70
2023-03-22T03:45:39.779Z,4.40
2023-03-22T03:48:22.315Z,4.80
2023-03-22T03:50:56.603Z,4.53
2023-03-22T03:53:30.217Z,4.40
2023-03-22T03:56:02.151Z,4.63
2023-03-22T03:58:34.280Z,4.30
2023-03-22T04:01:06.684Z,4.43
2023-03-22T04:03:38.635Z,4.23
2023-03-22T04:06:10.572Z,4.20
2023-03-22T04:08:45.536Z,4.87
2023-03-22T04:11:17.534Z,4.03
2023-03-22T04:13:49.492Z,4.10
2023-03-22T04:16:21.482Z,4.07
2023-03-22T04:18:53.433Z,4.03
2023-03-22T04:21:25.515Z,3.87
2023-03-22T04:23:57.886Z,4.00
2023-03-22T04:26:30.427Z,3.70
2023-03-22T04:29:03.146Z,4.00
2023-03-22T04:31:39.184Z,3.80
2023-03-22T04:34:11.525Z,3.70
2023-03-22T04:36:45.653Z,4.03
2023-03-22T04:39:17.878Z,4.00
2023-03-22T04:41:49.843Z,3.60
2023-03-22T04:44:22.789Z,3.97
2023-03-22T04:46:54.729Z,3.53
2023-03-22T04:49:29.835Z,3.80
2023-03-22T04:52:01.876Z,3.80
2023-03-22T04:54:33.995Z,3.77
2023-03-22T04:57:06.011Z,3.70
2023-03-22T04:59:38.118Z,3.70
2023-03-22T05:02:10.282Z,3.37
2023-03-22T05:04:42.322Z,3.80
2023-03-22T05:07:14.515Z,3.73
2023-03-22T05:09:46.414Z,3.97
2023-03-22T05:12:18.730Z,3.60
2023-03-22T05:14:50.853Z,3.60
2023-03-22T05:17:23.081Z,3.70
2023-03-22T05:19:55.005Z,3.50
2023-03-22T05:22:26.911Z,3.50
2023-03-22T05:24:58.843Z,3.63
2023-03-22T05:27:31.779Z,3.57
2023-03-22T05:30:04.115Z,4.07
2023-03-22T05:32:37.680Z,3.13
2023-03-22T05:35:10.666Z,3.30
2023-03-22T05:37:42.625Z,3.40
2023-03-22T05:40:14.828Z,3.20
2023-03-22T05:42:46.839Z,3.30
2023-03-22T05:45:20.320Z,3.30
2023-03-22T05:47:52.309Z,3.17
2023-03-22T05:50:24.954Z,3.10
2023-03-22T05:52:57.437Z,3.33
2023-03-22T05:55:30.381Z,3.10
2023-03-22T05:58:03.172Z,3.20
2023-03-22T06:00:35.841Z,3.10
2023-03-22T06:03:08.263Z,3.37
2023-03-22T06:05:40.425Z,2.90
2023-03-22T06:08:12.331Z,3.03
2023-03-22T06:10:44.276Z,3.00
2023-03-22T06:13:16.219Z,3.07
2023-03-22T06:15:48.260Z,3.33
2023-03-22T06:18:20.464Z,3.47
2023-03-22T06:20:52.448Z,3.10
2023-03-22T06:23:25.062Z,3.20
2023-03-22T06:25:57.047Z,3.17
2023-03-22T06:28:29.973Z,3.30
2023-03-22T06:31:10.271Z,3.00
2023-03-22T06:33:42.220Z,2.93
2023-03-22T06:36:14.707Z,3.80
2023-03-22T06:38:46.621Z,2.83
2023-03-22T06:41:18.602Z,3.53
2023-03-22T06:43:50.666Z,3.60
2023-03-22T06:46:22.723Z,3.30
2023-03-22T06:48:54.676Z,3.60
2023-03-22T06:51:26.647Z,3.40
2023-03-22T06:53:58.907Z,3.47
2023-03-22T06:56:30.833Z,3.43
2023-03-22T06:59:02.876Z,3.43
2023-03-22T07:01:34.997Z,3.37
2023-03-22T07:04:07.072Z,3.20
2023-03-22T07:06:39.303Z,3.73
2023-03-22T07:09:11.486Z,3.63
2023-03-22T07:11:43.438Z,3.83
2023-03-22T07:14:15.382Z,3.70
2023-03-22T07:16:47.416Z,4.37
2023-03-22T07:19:19.338Z,4.23
2023-03-22T07:21:51.316Z,4.10
2023-03-22T07:24:23.282Z,4.40
2023-03-22T07:26:55.380Z,4.30
2023-03-22T07:29:27.481Z,4.47
2023-03-22T07:31:59.908Z,4.57
2023-03-22T07:34:31.852Z,4.10
2023-03-22T07:37:05.251Z,4.00
2023-03-22T07:39:37.399Z,4.00
2023-03-22T07:42:09.613Z,3.60
2023-03-22T07:44:42.142Z,3.80
2023-03-22T07:47:14.045Z,3.90
2023-03-22T07:49:46.010Z,3.50
2023-03-22T07:52:18.364Z,3.50
2023-03-22T07:54:50.531Z,3.40
2023-03-22T07:57:22.441Z,3.50
2023-03-22T07:59:54.461Z,2.90
2023-03-22T08:02:26.621Z,3.30
2023-03-22T08:04:59.643Z,3.17
2023-03-22T08:07:31.656Z,3.23
2023-03-22T08:10:05.459Z,2.87
2023-03-22T08:12:37.443Z,3.00
2023-03-22T08:15:10.547Z,3.07
2023-03-22T08:17:42.607Z,2.90
2023-03-22T08:20:14.609Z,2.70
2023-03-22T08:22:46.585Z,3.13
2023-03-22T08:25:18.557Z,2.90
2023-03-22T08:27:50.489Z,2.60
2023-03-22T08:30:22.572Z,2.80
2023-03-22T08:32:54.517Z,2.70
2023-03-22T08:35:26.534Z,2.50
2023-03-22T08:37:58.542Z,2.80
2023-03-22T08:40:30.531Z,2.53
2023-03-22T08:43:02.668Z,2.50
2023-03-22T08:45:34.663Z,2.73
2023-03-22T08:48:06.891Z,2.50
2023-03-22T08:50:39.800Z,2.47
2023-03-22T08:53:13.861Z,2.10
2023-03-22T08:55:45.754Z,2.30
2023-03-22T08:58:19.917Z,2.70
2023-03-22T09:00:52.208Z,2.60
2023-03-22T09:03:25.030Z,2.00
2023-03-22T09:05:57.178Z,2.47
2023-03-22T09:08:29.372Z,2.17
2023-03-22T09:11:01.507Z,2.70
2023-03-22T09:13:34.651Z,2.20
2023-03-22T09:16:08.969Z,2.30
2023-03-22T09:18:42.779Z,2.20
2023-03-22T09:21:14.786Z,2.40
2023-03-22T09:23:47.851Z,2.40
2023-03-22T09:26:19.984Z,2.27
2023-03-22T09:28:52.260Z,2.60
2023-03-22T09:31:24.341Z,2.30
2023-03-22T09:33:56.346Z,2.27
2023-03-22T09:36:28.287Z,2.40
2023-03-22T09:39:01.133Z,2.17
2023-03-22T09:41:53.745Z,2.40
2023-03-22T09:44:42.821Z,2.43
2023-03-22T09:47:21.603Z,2.43
2023-03-22T09:50:05.466Z,2.30
2023-03-22T09:52:37.416Z,2.37
2023-03-22T09:55:37.713Z,2.43
2023-03-22T09:58:47.515Z,1.97
2023-03-22T10:01:37.604Z,2.00
2023-03-22T10:04:36.046Z,2.27
2023-03-22T10:07:24.563Z,2.17
2023-03-22T10:10:18.624Z,2.20
2023-03-22T10:13:14.769Z,2.00
2023-03-22T10:15:52.288Z,2.30
2023-03-22T10:18:38.164Z,2.40
2023-03-22T10:21:13.742Z,2.10
2023-03-22T10:24:01.147Z,2.00
2023-03-22T10:26:55.897Z,2.37
2023-03-22T10:29:42.234Z,1.90
2023-03-22T10:32:22.590Z,1.70
2023-03-22T10:34:54.736Z,2.37
2023-03-22T10:37:38.892Z,2.13
2023-03-22T10:40:25.163Z,2.30
2023-03-22T10:43:31.921Z,2.53
2023-03-22T10:46:11.763Z,2.10
2023-03-22T10:48:49.516Z,2.00
2023-03-22T10:51:50.150Z,2.20
2023-03-22T10:54:26.274Z,2.27
2023-03-22T10:56:58.262Z,2.00
2023-03-22T10:59:52.434Z,2.47
2023-03-22T11:02:32.800Z,2.27
2023-03-22T11:05:07.261Z,1.97
2023-03-22T11:07:44.607Z,2.50
2023-03-22T11:10:28.168Z,2.50
2023-03-22T11:13:09.628Z,2.17
2023-03-22T11:15:52.920Z,2.13
2023-03-22T11:18:33.716Z,2.30
2023-03-22T11:21:12.926Z,2.23
2023-03-22T11:24:07.039Z,2.00
2023-03-22T11:26:41.420Z,2.37
2023-03-22T11:29:18.236Z,2.40
2023-03-22T11:31:59.746Z,2.70
2023-03-22T11:34:32.127Z,2.40
2023-03-22T11:37:08.724Z,2.57
2023-03-22T11:39:50.457Z,2.70
2023-03-22T11:42:22.489Z,2.50
2023-03-22T11:44:57.125Z,2.50
2023-03-22T11:47:39.208Z,2.40
2023-03-22T11:50:32.892Z,2.20
2023-03-22T11:53:13.750Z,2.30
2023-03-22T11:55:49.957Z,2.20
2023-03-22T11:58:28.322Z,1.97
2023-03-22T12:01:03.480Z,2.43
2023-03-22T12:03:42.316Z,2.17
2023-03-22T12:06:39.302Z,1.90
2023-03-22T12:09:31.188Z,2.10
2023-03-22T12:12:08.513Z,2.10
2023-03-22T12:14:51.855Z,2.00
2023-03-22T12:17:53.237Z,2.30
2023-03-22T12:20:53.548Z,2.47
2023-03-22T12:23:35.539Z,2.13
2023-03-22T12:26:26.429Z,2.30
2023-03-22T12:29:18.232Z,2.00
2023-03-22T12:32:05.416Z,2.10
2023-03-22T12:34:47.641Z,1.90
2023-03-22T12:37:30.093Z,1.93
2023-03-22T12:40:25.897Z,1.87
2023-03-22T12:43:38.196Z,1.90
2023-03-22T12:46:20.365Z,2.20
2023-03-22T12:49:21.509Z,1.90
2023-03-22T12:52:19.923Z,1.60
2023-03-22T12:54:54.210Z,2.07
2023-03-22T12:57:26.801Z,2.00
2023-03-22T13:00:13.343Z,1.97
2023-03-22T13:03:17.651Z,1.77
2023-03-22T13:06:01.161Z,1.97
2023-03-22T13:09:08.956Z,1.87
2023-03-22T13:11:42.312Z,1.67
2023-03-22T13:14:51.064Z,1.80
2023-03-22T13:17:23.047Z,2.07
2023-03-22T13:20:07.250Z,2.03
2023-03-22T13:22:39.124Z,1.90
2023-03-22T13:25:13.238Z,1.80
2023-03-22T13:28:03.429Z,2.03
2023-03-22T13:30:55.972Z,1.87
2023-03-22T13:33:33.082Z,1.77
2023-03-22T13:36:26.058Z,1.97
2023-03-22T13:39:09.582Z,2.10
2023-03-22T13:41:47.635Z,2.00
2023-03-22T13:44:29.276Z,1.70
2023-03-22T13:47:02.380Z,1.90
2023-03-22T13:49:54.563Z,1.90
2023-03-22T13:52:41.556Z,1.87
2023-03-22T13:55:51.932Z,1.93
2023-03-22T13:58:54.286Z,2.00
2023-03-22T14:01:38.091Z,1.93
2023-03-22T14:04:16.187Z,1.93
2023-03-22T14:06:57.453Z,2.30
2023-03-22T14:09:44.763Z,2.00
2023-03-22T14:12:50.854Z,2.13
2023-03-22T14:15:37.365Z,1.97
2023-03-22T14:18:35.027Z,2.50
2023-03-22T14:21:29.100Z,2.23
